Time;durP1;ratioP1;P1;durP2;ratioP2;P2;SDS_P1;SDS_P2;PMS_P1;PMS_P2;Temp;Humidity;BMP_temperature;BMP_pressure;BME280_temperature;BME280_humidity;BME280_pressure;Samples;Min_cycle;Max_cycle;Signal;HPM_P1;HPM_P2
2022/10/08 00:00:44;;;;;;;;;;;;;;;;;;5137269;27;20561;-77
2022/10/08 00:03:10;;;;;;;;;;;;;;;;;;5137292;27;19915;-76
2022/10/08 00:05:36;;;;;;;;;;;;;;;;;;5137391;27;19922;-77
2022/10/08 00:08:01;;;;;;;;;;;;;;;;;;5137180;27;19916;-76
2022/10/08 00:10:26;;;;;;;;;;;;;;;;;;5135965;27;20245;-76
2022/10/08 00:12:52;;;;;;;;;;;;;;;;;;5136708;27;20008;-76
2022/10/08 00:15:17;;;;;;;;;;;;;;;;;;5136967;27;19915;-76
2022/10/08 00:17:43;;;;;;;;;;;;;;;;;;5136884;27;19919;-76
2022/10/08 00:20:08;;;;;;;;;;;;;;;;;;5136144;27;19915;-76
2022/10/08 00:22:33;;;;;;;;;;;;;;;;;;5136706;27;19923;-77
2022/10/08 00:24:59;;;;;;;;;;;;;;;;;;5137057;27;19922;-76
2022/10/08 00:27:25;;;;;;;;;;;;;;;;;;5136875;27;19999;-76
2022/10/08 00:29:53;;;;;;;;;;;;;;;;;;5136747;27;20554;-77
2022/10/08 00:32:19;;;;;;;;;;;;;;;;;;5135596;27;19922;-76
2022/10/08 00:34:44;;;;;;;;;;;;;;;;;;5136856;27;19915;-76
2022/10/08 00:37:10;;;;;;;;;;;;;;;;;;5136513;27;19951;-76
2022/10/08 00:39:35;;;;;;;;;;;;;;;;;;5136446;27;19915;-76
2022/10/08 00:42:01;;;;;;;;;;;;;;;;;;5136163;27;19938;-77
2022/10/08 00:44:45;;;;;;;;;;;;;;;;;;5118552;27;19923;-76
2022/10/08 00:47:18;;;;;;;;;;;;;;;;;;5135190;27;20393;-76
2022/10/08 00:49:44;;;;;;;;;;;;;;;;;;5136582;27;19926;-76
2022/10/08 00:52:09;;;;;;;;;;;;;;;;;;5135002;27;19915;-76
2022/10/08 00:54:35;;;;;;;;;;;;;;;;;;5136160;27;19915;-77
2022/10/08 00:57:00;;;;;;;;;;;;;;;;;;5135756;27;19976;-77
2022/10/08 00:59:25;;;;;;;;;;;;;;;;;;5134831;27;19957;-76
2022/10/08 01:01:52;;;;;;;;;;;;;;;;;;5134898;27;19915;-77
2022/10/08 01:04:17;;;;;;;;;;;;;;;;;;5135993;27;20006;-77
2022/10/08 01:06:44;;;;;;;;;;;;;;;;;;5136479;27;19958;-76
2022/10/08 01:09:28;;;;;;;;;;;;;;;;;;5134894;27;20256;-77
2022/10/08 01:11:54;;;;;;;;;;;;;;;;;;5135576;27;19915;-76
2022/10/08 01:14:34;;;;;;;;;;;;;;;;;;5135868;27;19923;-76
2022/10/08 01:17:15;;;;;;;;;;;;;;;;;;5135693;27;19915;-76
2022/10/08 01:19:41;;;;;;;;;;;;;;;;;;5135682;27;20376;-76
2022/10/08 01:22:26;;;;;;;;;;;;;;;;;;5135693;27;19920;-76
2022/10/08 01:27:45;;;;;;;;;;;;;;;;;;5135573;27;20006;-76
2022/10/08 01:30:13;;;;;;;;;;;;;;;;;;5134319;27;20026;-77
2022/10/08 01:32:59;;;;;;;;;;;;;;;;;;5134127;27;19915;-76
2022/10/08 01:35:31;;;;;;;;;;;;;;;;;;5134826;27;19915;-76
2022/10/08 01:38:01;;;;;;;;;;;;;;;;;;5134158;27;19916;-76
2022/10/08 01:40:35;;;;;;;;;;;;;;;;;;5134005;27;19916;-77
2022/10/08 01:43:03;;;;;;;;;;;;;;;;;;5135401;27;20380;-76
2022/10/08 01:45:31;;;;;;;;;;;;;;;;;;5134405;27;19915;-76
2022/10/08 01:47:56;;;;;;;;;;;;;;;;;;5134161;27;20189;-77
2022/10/08 01:50:32;;;;;;;;;;;;;;;;;;5117124;27;19916;-77
2022/10/08 01:53:02;;;;;;;;;;;;;;;;;;5134079;27;20197;-77
2022/10/08 01:55:28;;;;;;;;;;;;;;;;;;5133825;28;19916;-77
2022/10/08 01:57:56;;;;;;;;;;;;;;;;;;5133808;28;19919;-76
2022/10/08 02:00:21;;;;;;;;;;;;;;;;;;5134121;28;19916;-77
2022/10/08 02:02:46;;;;;;;;;;;;;;;;;;5135194;27;20286;-76
2022/10/08 02:05:12;;;;;;;;;;;;;;;;;;5134053;28;20350;-76
2022/10/08 02:07:40;;;;;;;;;;;;;;;;;;5135333;27;20375;-77
2022/10/08 02:10:12;;;;;;;;;;;;;;;;;;5134132;28;19915;-77
2022/10/08 02:12:40;;;;;;;;;;;;;;;;;;5135091;27;20329;-76
2022/10/08 02:15:07;;;;;;;;;;;;;;;;;;5135152;27;20241;-76
2022/10/08 02:17:51;;;;;;;;;;;;;;;;;;5133707;28;19965;-76
2022/10/08 02:20:29;;;;;;;;;;;;;;;;;;5135467;28;19923;-77
2022/10/08 02:23:03;;;;;;;;;;;;;;;;;;5134865;27;19949;-76
2022/10/08 02:25:36;;;;;;;;;;;;;;;;;;5135125;27;19915;-76
2022/10/08 02:28:04;;;;;;;;;;;;;;;;;;5134976;27;19916;-76
2022/10/08 02:30:31;;;;;;;;;;;;;;;;;;5134842;27;19916;-76
2022/10/08 02:33:01;;;;;;;;;;;;;;;;;;5133943;28;20669;-77
2022/10/08 02:35:31;;;;;;;;;;;;;;;;;;5116483;28;19919;-76
2022/10/08 02:38:04;;;;;;;;;;;;;;;;;;5116427;28;20527;-77
2022/10/08 02:40:29;;;;;;;;;;;;;;;;;;5133628;28;19961;-76
2022/10/08 02:42:56;;;;;;;;;;;;;;;;;;5134729;27;19947;-76
2022/10/08 02:45:23;;;;;;;;;;;;;;;;;;5136763;27;19972;-77
2022/10/08 02:47:50;;;;;;;;;;;;;;;;;;5137505;27;20302;-76
2022/10/08 02:50:17;;;;;;;;;;;;;;;;;;5137687;27;19916;-77
2022/10/08 02:52:42;;;;;;;;;;;;;;;;;;5137328;27;19930;-76
2022/10/08 02:55:13;;;;;;;;;;;;;;;;;;5137293;27;19916;-77
2022/10/08 02:57:43;;;;;;;;;;;;;;;;;;5137050;27;19919;-77
2022/10/08 03:00:09;;;;;;;;;;;;;;;;;;5138403;27;20260;-77
2022/10/08 03:02:40;;;;;;;;;;;;;;;;;;5137149;27;19916;-76
2022/10/08 03:05:07;;;;;;;;;;;;;;;;;;5137416;27;19924;-76
2022/10/08 03:07:33;;;;;;;;;;;;;;;;;;5119818;27;19915;-77
2022/10/08 03:09:58;;;;;;;;;;;;;;;;;;5137066;27;20278;-77
2022/10/08 03:12:26;;;;;;;;;;;;;;;;;;5136929;27;19922;-77
2022/10/08 03:14:52;;;;;;;;;;;;;;;;;;5136887;27;20328;-76
2022/10/08 03:17:29;;;;;;;;;;;;;;;;;;5136770;27;19922;-77
2022/10/08 03:19:55;;;;;;;;;;;;;;;;;;5120273;27;19915;-76
2022/10/08 03:22:20;;;;;;;;;;;;;;;;;;5136723;27;19912;-76
2022/10/08 03:24:45;;;;;;;;;;;;;;;;;;5137970;27;19915;-76
2022/10/08 03:27:11;;;;;;;;;;;;;;;;;;5137903;27;19911;-77
2022/10/08 03:29:37;;;;;;;;;;;;;;;;;;5137890;27;19915;-77
2022/10/08 03:32:02;;;;;;;;;;;;;;;;;;5137865;27;19912;-76
2022/10/08 03:34:27;;;;;;;;;;;;;;;;;;5137681;27;19971;-76
2022/10/08 03:36:53;;;;;;;;;;;;;;;;;;5137435;27;20108;-76
2022/10/08 03:39:18;;;;;;;;;;;;;;;;;;5137751;27;20354;-77
2022/10/08 03:41:43;;;;;;;;;;;;;;;;;;5137580;27;20345;-76
2022/10/08 03:44:09;;;;;;;;;;;;;;;;;;5137603;27;20324;-76
2022/10/08 03:46:35;;;;;;;;;;;;;;;;;;5137542;27;19915;-76
2022/10/08 03:49:00;;;;;;;;;;;;;;;;;;5137463;27;19916;-76
2022/10/08 03:51:25;;;;;;;;;;;;;;;;;;5137210;27;19915;-76
2022/10/08 03:53:51;;;;;;;;;;;;;;;;;;5136637;27;20250;-76
2022/10/08 03:56:17;;;;;;;;;;;;;;;;;;5136106;27;19951;-76
2022/10/08 03:58:42;;;;;;;;;;;;;;;;;;5137393;27;20066;-76
2022/10/08 04:01:11;;;;;;;;;;;;;;;;;;5137227;27;20325;-77
2022/10/08 04:03:37;;;;;;;;;;;;;;;;;;5137182;27;19923;-76
2022/10/08 04:06:02;;;;;;;;;;;;;;;;;;5137107;27;20332;-76
2022/10/08 04:08:27;;;;;;;;;;;;;;;;;;5137428;27;20321;-76
2022/10/08 04:10:53;;;;;;;;;;;;;;;;;;5136963;27;19922;-76
2022/10/08 04:13:18;;;;;;;;;;;;;;;;;;5136986;27;19922;-76
2022/10/08 04:15:43;;;;;;;;;;;;;;;;;;5136992;27;19920;-76
2022/10/08 04:18:11;;;;;;;;;;;;;;;;;;5135854;27;20344;-77
2022/10/08 04:20:38;;;;;;;;;;;;;;;;;;5118810;27;19915;-77
2022/10/08 04:23:03;;;;;;;;;;;;;;;;;;5136740;27;20382;-76
2022/10/08 04:25:28;;;;;;;;;;;;;;;;;;5136934;27;19916;-76
2022/10/08 04:27:54;;;;;;;;;;;;;;;;;;5136777;27;19915;-76
2022/10/08 04:30:19;;;;;;;;;;;;;;;;;;5136748;27;20293;-76
2022/10/08 04:32:44;;;;;;;;;;;;;;;;;;5136576;27;20320;-76
2022/10/08 04:35:10;;;;;;;;;;;;;;;;;;5136361;27;20363;-77
2022/10/08 04:37:35;;;;;;;;;;;;;;;;;;5136494;27;19958;-76
2022/10/08 04:40:01;;;;;;;;;;;;;;;;;;5136440;27;20328;-76
2022/10/08 04:42:26;;;;;;;;;;;;;;;;;;5135436;27;19923;-77
2022/10/08 04:44:51;;;;;;;;;;;;;;;;;;5135206;27;19922;-76
2022/10/08 04:47:17;;;;;;;;;;;;;;;;;;5136347;27;20377;-76
2022/10/08 04:49:42;;;;;;;;;;;;;;;;;;5136119;27;20305;-76
2022/10/08 04:52:08;;;;;;;;;;;;;;;;;;5136182;27;20306;-76
2022/10/08 04:54:34;;;;;;;;;;;;;;;;;;5136229;27;19954;-76
2022/10/08 04:56:59;;;;;;;;;;;;;;;;;;5136076;27;19963;-76
2022/10/08 04:59:24;;;;;;;;;;;;;;;;;;5136039;27;20350;-76
2022/10/08 05:01:51;;;;;;;;;;;;;;;;;;5136454;27;19915;-76
2022/10/08 05:04:16;;;;;;;;;;;;;;;;;;5135849;27;20390;-76
2022/10/08 05:06:42;;;;;;;;;;;;;;;;;;5135555;27;19919;-76
2022/10/08 05:09:07;;;;;;;;;;;;;;;;;;5135935;27;19958;-77
2022/10/08 05:11:32;;;;;;;;;;;;;;;;;;5134652;27;20323;-77
2022/10/08 05:13:58;;;;;;;;;;;;;;;;;;5135961;27;19915;-76
2022/10/08 05:16:23;;;;;;;;;;;;;;;;;;5135978;27;19957;-77
2022/10/08 05:18:50;;;;;;;;;;;;;;;;;;5135540;27;20331;-76
2022/10/08 05:21:18;;;;;;;;;;;;;;;;;;5135993;27;19922;-77
2022/10/08 05:23:44;;;;;;;;;;;;;;;;;;5135757;27;20302;-76
2022/10/08 05:26:16;;;;;;;;;;;;;;;;;;5135838;27;19915;-77
2022/10/08 05:28:42;;;;;;;;;;;;;;;;;;5135903;27;19918;-77
2022/10/08 05:31:07;;;;;;;;;;;;;;;;;;5135036;27;19916;-77
2022/10/08 05:33:33;;;;;;;;;;;;;;;;;;5135622;27;19968;-77
2022/10/08 05:36:01;;;;;;;;;;;;;;;;;;5135615;27;19955;-77
2022/10/08 05:38:27;;;;;;;;;;;;;;;;;;5134281;27;19972;-77
2022/10/08 05:41:04;;;;;;;;;;;;;;;;;;5117040;28;19916;-77
2022/10/08 05:43:29;;;;;;;;;;;;;;;;;;5134177;27;19915;-77
2022/10/08 05:45:54;;;;;;;;;;;;;;;;;;5134882;27;19921;-77
2022/10/08 05:48:19;;;;;;;;;;;;;;;;;;5135007;27;19971;-77
2022/10/08 05:50:45;;;;;;;;;;;;;;;;;;5133951;27;19916;-75
2022/10/08 05:53:10;;;;;;;;;;;;;;;;;;5134891;27;20324;-77
2022/10/08 05:55:35;;;;;;;;;;;;;;;;;;5133678;27;20321;-78
2022/10/08 05:58:01;;;;;;;;;;;;;;;;;;5134983;27;19927;-77
2022/10/08 06:00:26;;;;;;;;;;;;;;;;;;5134803;27;19925;-77
2022/10/08 06:02:51;;;;;;;;;;;;;;;;;;5116114;28;19922;-76
2022/10/08 06:05:17;;;;;;;;;;;;;;;;;;5133301;28;19915;-77
2022/10/08 06:07:42;;;;;;;;;;;;;;;;;;5135275;27;19980;-77
2022/10/08 06:10:07;;;;;;;;;;;;;;;;;;5135029;27;19972;-77
2022/10/08 06:12:33;;;;;;;;;;;;;;;;;;5135083;27;19945;-77
2022/10/08 06:14:58;;;;;;;;;;;;;;;;;;5135115;27;19972;-77
2022/10/08 06:17:23;;;;;;;;;;;;;;;;;;5135009;27;19915;-77
2022/10/08 06:19:49;;;;;;;;;;;;;;;;;;5137384;27;19932;-77
2022/10/08 06:22:14;;;;;;;;;;;;;;;;;;5138349;27;19991;-77
2022/10/08 06:24:39;;;;;;;;;;;;;;;;;;5139171;27;19972;-78
2022/10/08 06:27:05;;;;;;;;;;;;;;;;;;5139293;27;19915;-77
2022/10/08 06:29:30;;;;;;;;;;;;;;;;;;5137665;27;20526;-77
2022/10/08 06:31:55;;;;;;;;;;;;;;;;;;5139002;27;19915;-77
2022/10/08 06:34:20;;;;;;;;;;;;;;;;;;5139278;27;20053;-77
2022/10/08 06:36:46;;;;;;;;;;;;;;;;;;5138141;27;19915;-77
2022/10/08 06:39:12;;;;;;;;;;;;;;;;;;5137748;27;20010;-78
2022/10/08 06:41:38;;;;;;;;;;;;;;;;;;5137584;27;19972;-77
2022/10/08 06:44:04;;;;;;;;;;;;;;;;;;5138575;27;20312;-77
2022/10/08 06:46:31;;;;;;;;;;;;;;;;;;5138767;27;20006;-77
2022/10/08 06:48:57;;;;;;;;;;;;;;;;;;5138219;27;19915;-78
2022/10/08 06:51:22;;;;;;;;;;;;;;;;;;5138668;27;19915;-78
2022/10/08 06:53:51;;;;;;;;;;;;;;;;;;5137384;27;19915;-75
2022/10/08 06:56:17;;;;;;;;;;;;;;;;;;5137161;27;20343;-75
2022/10/08 06:58:43;;;;;;;;;;;;;;;;;;5138285;27;19977;-75
2022/10/08 07:01:10;;;;;;;;;;;;;;;;;;5120150;27;19922;-75
2022/10/08 07:03:35;;;;;;;;;;;;;;;;;;5137681;27;19922;-75
2022/10/08 07:06:01;;;;;;;;;;;;;;;;;;5138563;27;19915;-75
2022/10/08 07:08:27;;;;;;;;;;;;;;;;;;5137127;27;19912;-75
2022/10/08 07:10:53;;;;;;;;;;;;;;;;;;5138992;27;19916;-75
2022/10/08 07:13:18;;;;;;;;;;;;;;;;;;5138303;27;19915;-75
2022/10/08 07:15:43;;;;;;;;;;;;;;;;;;5138483;27;19912;-75
2022/10/08 07:18:10;;;;;;;;;;;;;;;;;;5137153;27;20022;-75
2022/10/08 07:20:36;;;;;;;;;;;;;;;;;;5138180;27;20031;-76
2022/10/08 07:23:01;;;;;;;;;;;;;;;;;;5138065;27;20359;-75
2022/10/08 07:25:26;;;;;;;;;;;;;;;;;;5138253;27;19921;-75
2022/10/08 07:27:52;;;;;;;;;;;;;;;;;;5137678;27;19915;-76
2022/10/08 07:30:17;;;;;;;;;;;;;;;;;;5137151;27;19922;-75
2022/10/08 07:32:42;;;;;;;;;;;;;;;;;;5137811;27;20006;-75
2022/10/08 07:35:08;;;;;;;;;;;;;;;;;;5137777;27;19938;-75
2022/10/08 07:37:34;;;;;;;;;;;;;;;;;;5136312;27;20354;-75
2022/10/08 07:39:59;;;;;;;;;;;;;;;;;;5137400;27;20010;-75
2022/10/08 07:42:24;;;;;;;;;;;;;;;;;;5136401;27;20001;-76
2022/10/08 07:44:50;;;;;;;;;;;;;;;;;;5136395;27;20017;-76
2022/10/08 07:47:15;;;;;;;;;;;;;;;;;;5137283;27;19911;-75
2022/10/08 07:49:40;;;;;;;;;;;;;;;;;;5137409;27;20193;-75
2022/10/08 07:52:06;;;;;;;;;;;;;;;;;;5137583;27;19922;-76
2022/10/08 07:54:32;;;;;;;;;;;;;;;;;;5136835;27;20320;-75
2022/10/08 07:57:00;;;;;;;;;;;;;;;;;;5131496;27;19958;-75
2022/10/08 07:59:26;;;;;;;;;;;;;;;;;;5122044;27;19920;-75
2022/10/08 08:01:51;;;;;;;;;;;;;;;;;;5131533;27;20015;-76
2022/10/08 08:04:16;;;;;;;;;;;;;;;;;;5118568;27;19923;-76
2022/10/08 08:06:47;;;;;;;;;;;;;;;;;;5116763;28;19927;-76
2022/10/08 08:09:13;;;;;;;;;;;;;;;;;;5115254;28;19943;-77
2022/10/08 08:11:39;;;;;;;;;;;;;;;;;;5115459;28;19915;-76
2022/10/08 08:14:04;;;;;;;;;;;;;;;;;;5115581;28;20282;-76
2022/10/08 08:16:30;;;;;;;;;;;;;;;;;;5116431;28;20290;-77
2022/10/08 08:18:56;;;;;;;;;;;;;;;;;;5116197;28;19915;-76
2022/10/08 08:21:32;;;;;;;;;;;;;;;;;;5114957;28;19916;-77
2022/10/08 08:23:57;;;;;;;;;;;;;;;;;;5116554;28;19915;-77
2022/10/08 08:26:27;;;;;;;;;;;;;;;;;;5116233;28;20002;-76
2022/10/08 08:28:53;;;;;;;;;;;;;;;;;;5115283;28;19923;-76
2022/10/08 08:31:26;;;;;;;;;;;;;;;;;;5116827;28;19916;-76
2022/10/08 08:33:52;;;;;;;;;;;;;;;;;;5116368;28;19916;-76
2022/10/08 08:36:18;;;;;;;;;;;;;;;;;;5116190;28;19916;-76
2022/10/08 08:38:43;;;;;;;;;;;;;;;;;;5114764;28;19926;-76
2022/10/08 08:41:27;;;;;;;;;;;;;;;;;;5114025;28;19923;-76
2022/10/08 08:43:56;;;;;;;;;;;;;;;;;;5114534;28;19911;-76
2022/10/08 08:46:21;;;;;;;;;;;;;;;;;;5114854;28;20434;-76
2022/10/08 08:48:46;;;;;;;;;;;;;;;;;;5114597;28;19992;-75
2022/10/08 08:51:12;;;;;;;;;;;;;;;;;;5114192;28;20307;-76
2022/10/08 08:53:37;;;;;;;;;;;;;;;;;;5115691;28;19912;-76
2022/10/08 08:56:03;;;;;;;;;;;;;;;;;;5114070;28;19980;-76
2022/10/08 08:58:34;;;;;;;;;;;;;;;;;;5113685;28;19926;-76
2022/10/08 09:01:08;;;;;;;;;;;;;;;;;;5114185;28;19922;-76
2022/10/08 09:03:34;;;;;;;;;;;;;;;;;;5122356;27;19927;-76
2022/10/08 09:06:00;;;;;;;;;;;;;;;;;;5117100;27;19973;-76
2022/10/08 09:08:28;;;;;;;;;;;;;;;;;;5114345;28;19915;-76
2022/10/08 09:10:54;;;;;;;;;;;;;;;;;;5112736;28;20002;-76
2022/10/08 09:13:21;;;;;;;;;;;;;;;;;;5112971;28;19916;-76
2022/10/08 09:15:46;;;;;;;;;;;;;;;;;;5112948;28;19964;-76
2022/10/08 09:18:12;;;;;;;;;;;;;;;;;;5113292;28;20306;-76
2022/10/08 09:20:38;;;;;;;;;;;;;;;;;;5113137;28;19923;-76
2022/10/08 09:23:07;;;;;;;;;;;;;;;;;;5113714;28;20000;-75
2022/10/08 09:25:32;;;;;;;;;;;;;;;;;;5112319;28;19916;-76
2022/10/08 09:28:00;;;;;;;;;;;;;;;;;;5113507;28;20241;-77
2022/10/08 09:30:34;;;;;;;;;;;;;;;;;;5095545;28;19922;-76
2022/10/08 09:33:01;;;;;;;;;;;;;;;;;;5114182;28;19916;-75
2022/10/08 09:35:26;;;;;;;;;;;;;;;;;;5115176;28;19915;-77
2022/10/08 09:37:52;;;;;;;;;;;;;;;;;;5124240;28;19916;-76
2022/10/08 09:40:21;;;;;;;;;;;;;;;;;;5129677;28;19942;-76
2022/10/08 09:43:05;;;;;;;;;;;;;;;;;;5135393;28;19946;-75
2022/10/08 09:45:34;;;;;;;;;;;;;;;;;;5118218;28;19916;-76
2022/10/08 09:48:15;;;;;;;;;;;;;;;;;;5127576;28;19911;-76
2022/10/08 09:50:48;;;;;;;;;;;;;;;;;;5131324;28;20044;-76
2022/10/08 09:53:14;;;;;;;;;;;;;;;;;;5134058;28;19923;-76
2022/10/08 09:55:39;;;;;;;;;;;;;;;;;;5132336;28;19916;-76
2022/10/08 09:58:05;;;;;;;;;;;;;;;;;;5126364;28;19930;-76
2022/10/08 10:00:34;;;;;;;;;;;;;;;;;;5113479;28;19950;-76
2022/10/08 10:02:59;;;;;;;;;;;;;;;;;;5113475;28;20311;-76
2022/10/08 10:05:25;;;;;;;;;;;;;;;;;;5114951;28;19941;-76
2022/10/08 10:07:51;;;;;;;;;;;;;;;;;;5096473;28;19938;-76
2022/10/08 10:10:23;;;;;;;;;;;;;;;;;;5113665;28;19923;-76
2022/10/08 10:13:00;;;;;;;;;;;;;;;;;;5113330;28;20398;-76
2022/10/08 10:15:28;;;;;;;;;;;;;;;;;;5113768;28;19916;-76
2022/10/08 10:17:53;;;;;;;;;;;;;;;;;;5113196;28;19915;-76
2022/10/08 10:20:29;;;;;;;;;;;;;;;;;;5114733;28;19923;-76
2022/10/08 10:23:11;;;;;;;;;;;;;;;;;;5113258;28;20362;-76
2022/10/08 10:25:36;;;;;;;;;;;;;;;;;;5113845;28;20278;-75
2022/10/08 10:28:03;;;;;;;;;;;;;;;;;;5114403;28;19960;-76
2022/10/08 10:30:28;;;;;;;;;;;;;;;;;;5113225;28;19959;-76
2022/10/08 10:33:03;;;;;;;;;;;;;;;;;;5113358;28;20350;-76
2022/10/08 10:35:29;;;;;;;;;;;;;;;;;;5113128;28;20269;-76
2022/10/08 10:38:00;;;;;;;;;;;;;;;;;;5114186;28;19962;-75
2022/10/08 10:40:29;;;;;;;;;;;;;;;;;;5114289;28;19922;-77
2022/10/08 10:42:57;;;;;;;;;;;;;;;;;;5114233;28;19916;-76
2022/10/08 10:45:27;;;;;;;;;;;;;;;;;;5113282;28;20344;-76
2022/10/08 10:47:52;;;;;;;;;;;;;;;;;;5113063;28;19916;-75
2022/10/08 10:50:38;;;;;;;;;;;;;;;;;;5112699;28;19969;-76
2022/10/08 10:53:09;;;;;;;;;;;;;;;;;;5113772;28;19950;-76
2022/10/08 10:55:34;;;;;;;;;;;;;;;;;;5114105;27;19915;-76
2022/10/08 10:58:18;;;;;;;;;;;;;;;;;;5113802;28;19927;-75
2022/10/08 11:01:02;;;;;;;;;;;;;;;;;;5114051;28;20302;-76
2022/10/08 11:03:33;;;;;;;;;;;;;;;;;;5096000;28;19916;-76
2022/10/08 11:06:05;;;;;;;;;;;;;;;;;;5115188;28;19917;-76
2022/10/08 11:08:49;;;;;;;;;;;;;;;;;;5117634;28;19915;-75
2022/10/08 11:11:26;;;;;;;;;;;;;;;;;;5116483;28;19998;-76
2022/10/08 11:13:57;;;;;;;;;;;;;;;;;;5117574;28;20365;-74
2022/10/08 11:16:27;;;;;;;;;;;;;;;;;;5117459;28;20348;-75
2022/10/08 11:18:53;;;;;;;;;;;;;;;;;;5116458;28;19923;-76
2022/10/08 11:21:24;;;;;;;;;;;;;;;;;;5117629;28;19922;-76
2022/10/08 11:23:55;;;;;;;;;;;;;;;;;;5117557;28;19916;-76
2022/10/08 11:26:36;;;;;;;;;;;;;;;;;;5117420;28;19958;-76
2022/10/08 11:29:06;;;;;;;;;;;;;;;;;;5116187;28;20321;-77
2022/10/08 11:31:31;;;;;;;;;;;;;;;;;;5117526;28;19923;-76
2022/10/08 11:33:56;;;;;;;;;;;;;;;;;;5117329;28;19911;-76
2022/10/08 11:36:22;;;;;;;;;;;;;;;;;;5117167;28;20438;-76
2022/10/08 11:38:49;;;;;;;;;;;;;;;;;;5116992;28;20253;-76
2022/10/08 11:41:17;;;;;;;;;;;;;;;;;;5115717;28;19925;-76
2022/10/08 11:43:45;;;;;;;;;;;;;;;;;;5115719;28;19958;-76
2022/10/08 11:46:30;;;;;;;;;;;;;;;;;;5115737;28;19923;-76
2022/10/08 11:48:59;;;;;;;;;;;;;;;;;;5115426;28;19923;-76
2022/10/08 11:51:24;;;;;;;;;;;;;;;;;;5116799;28;19916;-76
2022/10/08 11:53:59;;;;;;;;;;;;;;;;;;5115722;28;19942;-77
2022/10/08 11:56:24;;;;;;;;;;;;;;;;;;5115402;28;19915;-76
2022/10/08 11:58:53;;;;;;;;;;;;;;;;;;5115405;28;20324;-76
2022/10/08 12:01:18;;;;;;;;;;;;;;;;;;5115418;28;19972;-76
2022/10/08 12:03:45;;;;;;;;;;;;;;;;;;5115138;28;20005;-76
2022/10/08 12:06:14;;;;;;;;;;;;;;;;;;5098221;28;20010;-77
2022/10/08 12:08:47;;;;;;;;;;;;;;;;;;5116817;28;19949;-76
2022/10/08 12:11:30;;;;;;;;;;;;;;;;;;5116725;28;19962;-76
2022/10/08 12:14:15;;;;;;;;;;;;;;;;;;5116427;28;19958;-76
2022/10/08 12:16:46;;;;;;;;;;;;;;;;;;5116237;28;20360;-76
2022/10/08 12:19:31;;;;;;;;;;;;;;;;;;5115876;28;19915;-75
2022/10/08 12:21:56;;;;;;;;;;;;;;;;;;5114963;28;20262;-76
2022/10/08 12:24:45;;;;;;;;;;;;;;;;;;5115017;28;20008;-76
2022/10/08 12:27:16;;;;;;;;;;;;;;;;;;5114714;28;20325;-76
2022/10/08 12:30:00;;;;;;;;;;;;;;;;;;5116189;28;19916;-76
2022/10/08 12:32:26;;;;;;;;;;;;;;;;;;5114590;28;19915;-76
2022/10/08 12:34:51;;;;;;;;;;;;;;;;;;5114928;28;20343;-76
2022/10/08 12:37:22;;;;;;;;;;;;;;;;;;5115957;28;19919;-76
2022/10/08 12:39:48;;;;;;;;;;;;;;;;;;5116207;28;20261;-75
2022/10/08 12:42:16;;;;;;;;;;;;;;;;;;5115804;28;19916;-75
2022/10/08 12:44:50;;;;;;;;;;;;;;;;;;5115756;28;19947;-76
2022/10/08 12:47:19;;;;;;;;;;;;;;;;;;5115475;28;20348;-76
2022/10/08 12:49:50;;;;;;;;;;;;;;;;;;5115772;28;19915;-76
2022/10/08 12:52:16;;;;;;;;;;;;;;;;;;5115650;28;19916;-76
2022/10/08 12:55:00;;;;;;;;;;;;;;;;;;5114194;28;19916;-76
2022/10/08 12:57:25;;;;;;;;;;;;;;;;;;5114414;28;19926;-76
2022/10/08 12:59:51;;;;;;;;;;;;;;;;;;5115577;28;19916;-76
2022/10/08 13:02:38;;;;;;;;;;;;;;;;;;5115364;28;19915;-76
2022/10/08 13:05:24;;;;;;;;;;;;;;;;;;5114325;28;20413;-76
2022/10/08 13:07:49;;;;;;;;;;;;;;;;;;5115123;28;19915;-76
2022/10/08 13:10:16;;;;;;;;;;;;;;;;;;5115509;28;19923;-76
2022/10/08 13:12:42;;;;;;;;;;;;;;;;;;5115357;28;19916;-76
2022/10/08 13:15:29;;;;;;;;;;;;;;;;;;5115055;28;19916;-76
2022/10/08 13:17:54;;;;;;;;;;;;;;;;;;5115093;27;20012;-76
2022/10/08 13:20:20;;;;;;;;;;;;;;;;;;5115686;28;20339;-76
2022/10/08 13:22:46;;;;;;;;;;;;;;;;;;5115089;28;20253;-76
2022/10/08 13:25:30;;;;;;;;;;;;;;;;;;5113759;28;19916;-76
2022/10/08 13:28:11;;;;;;;;;;;;;;;;;;5114814;28;20280;-76
2022/10/08 13:30:37;;;;;;;;;;;;;;;;;;5113854;28;20366;-76
2022/10/08 13:33:03;;;;;;;;;;;;;;;;;;5114923;28;19915;-76
2022/10/08 13:35:28;;;;;;;;;;;;;;;;;;5115159;28;19935;-77
2022/10/08 13:37:53;;;;;;;;;;;;;;;;;;5113624;28;20002;-75
2022/10/08 13:40:19;;;;;;;;;;;;;;;;;;5113558;28;20347;-76
2022/10/08 13:42:45;;;;;;;;;;;;;;;;;;5115055;28;19912;-76
2022/10/08 13:45:13;;;;;;;;;;;;;;;;;;5114663;28;19969;-76
2022/10/08 13:47:39;;;;;;;;;;;;;;;;;;5113879;28;19918;-76
2022/10/08 13:50:04;;;;;;;;;;;;;;;;;;5114876;28;20325;-76
2022/10/08 13:52:30;;;;;;;;;;;;;;;;;;5114698;28;19922;-77
2022/10/08 13:54:57;;;;;;;;;;;;;;;;;;5113556;28;19919;-77
2022/10/08 13:57:23;;;;;;;;;;;;;;;;;;5113286;28;19920;-76
2022/10/08 13:59:48;;;;;;;;;;;;;;;;;;5113167;28;19916;-77
2022/10/08 14:02:13;;;;;;;;;;;;;;;;;;5114589;28;20344;-77
2022/10/08 14:04:39;;;;;;;;;;;;;;;;;;5114810;28;19954;-77
2022/10/08 14:07:04;;;;;;;;;;;;;;;;;;5114723;28;19999;-77
2022/10/08 14:09:30;;;;;;;;;;;;;;;;;;5113389;28;20261;-76
2022/10/08 14:11:58;;;;;;;;;;;;;;;;;;5113252;28;19915;-77
2022/10/08 14:14:23;;;;;;;;;;;;;;;;;;5113108;28;19916;-77
2022/10/08 14:16:49;;;;;;;;;;;;;;;;;;5114521;28;19961;-77
2022/10/08 14:19:14;;;;;;;;;;;;;;;;;;5114399;28;19965;-77
2022/10/08 14:21:39;;;;;;;;;;;;;;;;;;5113177;28;19922;-77
2022/10/08 14:24:05;;;;;;;;;;;;;;;;;;5114472;28;19923;-77
2022/10/08 14:26:30;;;;;;;;;;;;;;;;;;5114743;28;19926;-77
2022/10/08 14:28:56;;;;;;;;;;;;;;;;;;5114057;28;19916;-76
2022/10/08 14:31:21;;;;;;;;;;;;;;;;;;5113260;28;19915;-77
2022/10/08 14:33:47;;;;;;;;;;;;;;;;;;5114263;28;19915;-76
2022/10/08 14:36:16;;;;;;;;;;;;;;;;;;5113199;28;20253;-77
2022/10/08 14:38:41;;;;;;;;;;;;;;;;;;5113054;28;19915;-77
2022/10/08 14:41:07;;;;;;;;;;;;;;;;;;5117212;28;19915;-77
2022/10/08 14:43:32;;;;;;;;;;;;;;;;;;5116726;28;19923;-77
2022/10/08 14:45:57;;;;;;;;;;;;;;;;;;5118240;28;20003;-77
2022/10/08 14:48:23;;;;;;;;;;;;;;;;;;5118422;27;20204;-77
2022/10/08 14:50:48;;;;;;;;;;;;;;;;;;5100547;28;19916;-77
2022/10/08 14:53:14;;;;;;;;;;;;;;;;;;5118740;28;19923;-77
2022/10/08 14:55:39;;;;;;;;;;;;;;;;;;5118303;28;20389;-77
2022/10/08 14:58:04;;;;;;;;;;;;;;;;;;5117457;28;19942;-77
2022/10/08 15:00:30;;;;;;;;;;;;;;;;;;5117823;28;19922;-77
2022/10/08 15:02:55;;;;;;;;;;;;;;;;;;5117989;28;20332;-77
2022/10/08 15:05:20;;;;;;;;;;;;;;;;;;5117838;28;19923;-77
2022/10/08 15:07:46;;;;;;;;;;;;;;;;;;5117770;28;19923;-77
2022/10/08 15:10:11;;;;;;;;;;;;;;;;;;5117740;28;19915;-76
2022/10/08 15:12:36;;;;;;;;;;;;;;;;;;5117444;28;19939;-76
2022/10/08 15:15:02;;;;;;;;;;;;;;;;;;5117774;28;20278;-77
2022/10/08 15:17:27;;;;;;;;;;;;;;;;;;5117463;28;19915;-77
2022/10/08 15:19:52;;;;;;;;;;;;;;;;;;5116546;28;20233;-77
2022/10/08 15:22:18;;;;;;;;;;;;;;;;;;5117803;28;19916;-77
2022/10/08 15:24:43;;;;;;;;;;;;;;;;;;5117361;28;19923;-77
2022/10/08 15:27:08;;;;;;;;;;;;;;;;;;5117156;28;19915;-77
2022/10/08 15:29:34;;;;;;;;;;;;;;;;;;5116169;28;20335;-77
2022/10/08 15:31:59;;;;;;;;;;;;;;;;;;5117342;28;19915;-77
2022/10/08 15:34:25;;;;;;;;;;;;;;;;;;5117611;28;19916;-77
2022/10/08 15:36:50;;;;;;;;;;;;;;;;;;5117308;28;20408;-77
2022/10/08 15:39:16;;;;;;;;;;;;;;;;;;5116035;28;19915;-77
2022/10/08 15:41:42;;;;;;;;;;;;;;;;;;5098817;28;19916;-77
2022/10/08 15:44:24;;;;;;;;;;;;;;;;;;5116137;28;19916;-77
2022/10/08 15:46:51;;;;;;;;;;;;;;;;;;5115812;28;20264;-77
2022/10/08 15:49:17;;;;;;;;;;;;;;;;;;5115657;28;19916;-77
2022/10/08 15:51:42;;;;;;;;;;;;;;;;;;5116518;28;20002;-77
2022/10/08 15:54:07;;;;;;;;;;;;;;;;;;5115763;28;19959;-77
2022/10/08 15:56:33;;;;;;;;;;;;;;;;;;5115197;28;19998;-77
2022/10/08 15:58:58;;;;;;;;;;;;;;;;;;5115525;28;19916;-77
2022/10/08 16:01:24;;;;;;;;;;;;;;;;;;5115804;28;19916;-77
2022/10/08 16:03:50;;;;;;;;;;;;;;;;;;5116990;28;19923;-77
2022/10/08 16:06:16;;;;;;;;;;;;;;;;;;5117091;28;19919;-77
2022/10/08 16:08:43;;;;;;;;;;;;;;;;;;5117358;28;19916;-77
2022/10/08 16:11:11;;;;;;;;;;;;;;;;;;5115159;28;19915;-77
2022/10/08 16:13:36;;;;;;;;;;;;;;;;;;5115301;28;19916;-77
2022/10/08 16:16:03;;;;;;;;;;;;;;;;;;5116472;28;19916;-77
2022/10/08 16:18:28;;;;;;;;;;;;;;;;;;5116415;28;20326;-77
2022/10/08 16:20:54;;;;;;;;;;;;;;;;;;5116416;28;19916;-77
2022/10/08 16:23:19;;;;;;;;;;;;;;;;;;5116409;28;19919;-76
2022/10/08 16:25:44;;;;;;;;;;;;;;;;;;5116464;28;19915;-77
2022/10/08 16:28:10;;;;;;;;;;;;;;;;;;5116359;28;20283;-77
2022/10/08 16:30:35;;;;;;;;;;;;;;;;;;5116358;28;20347;-77
2022/10/08 16:33:00;;;;;;;;;;;;;;;;;;5116290;28;19920;-77
2022/10/08 16:35:25;;;;;;;;;;;;;;;;;;5116294;28;20324;-77
2022/10/08 16:37:53;;;;;;;;;;;;;;;;;;5116186;28;19916;-77
2022/10/08 16:40:18;;;;;;;;;;;;;;;;;;5115774;27;20270;-77
2022/10/08 16:42:43;;;;;;;;;;;;;;;;;;5115905;28;19915;-77
2022/10/08 16:45:09;;;;;;;;;;;;;;;;;;5115899;28;19920;-76
2022/10/08 16:47:34;;;;;;;;;;;;;;;;;;5115829;28;19919;-77
2022/10/08 16:50:00;;;;;;;;;;;;;;;;;;5115821;28;19928;-77
2022/10/08 16:52:25;;;;;;;;;;;;;;;;;;5116235;28;19964;-77